sensor_id;sensor_type;location;lat;lon;timestamp;temperature;humidity
25200;DHT22;33094;48.782;9.162;2023-03-14T00:01:20;11.50;99.90
25200;DHT22;33094;48.782;9.162;2023-03-14T00:03:46;11.50;99.90
25200;DHT22;33094;48.782;9.162;2023-03-14T00:06:13;11.50;99.90
25200;DHT22;33094;48.782;9.162;2023-03-14T00:08:39;11.50;99.90
25200;DHT22;33094;48.782;9.162;2023-03-14T00:11:11;11.20;99.90
25200;DHT22;33094;48.782;9.162;2023-03-14T00:13:37;11.40;99.90
25200;DHT22;33094;48.782;9.162;2023-03-14T00:16:05;11.40;99.90
25200;DHT22;33094;48.782;9.162;2023-03-14T00:18:30;11.40;99.90
25200;DHT22;33094;48.782;9.162;2023-03-14T00:21:01;11.50;99.90
25200;DHT22;33094;48.782;9.162;2023-03-14T00:23:28;11.50;99.90
25200;DHT22;33094;48.782;9.162;2023-03-14T00:25:59;11.40;99.90
25200;DHT22;33094;48.782;9.162;2023-03-14T00:28:25;11.50;99.90
25200;DHT22;33094;48.782;9.162;2023-03-14T00:30:50;11.40;99.90
25200;DHT22;33094;48.782;9.162;2023-03-14T00:33:16;11.40;99.90
25200;DHT22;33094;48.782;9.162;2023-03-14T00:38:17;11.50;99.90
25200;DHT22;33094;48.782;9.162;2023-03-14T00:40:43;11.50;99.90
25200;DHT22;33094;48.782;9.162;2023-03-14T00:45:36;11.50;99.90
25200;DHT22;33094;48.782;9.162;2023-03-14T00:48:02;11.50;99.90
25200;DHT22;33094;48.782;9.162;2023-03-14T00:50:28;11.50;99.90
25200;DHT22;33094;48.782;9.162;2023-03-14T00:52:54;11.50;99.90
25200;DHT22;33094;48.782;9.162;2023-03-14T00:55:19;11.50;99.90
25200;DHT22;33094;48.782;9.162;2023-03-14T00:57:45;11.60;99.90
25200;DHT22;33094;48.782;9.162;2023-03-14T01:00:11;11.60;99.90
25200;DHT22;33094;48.782;9.162;2023-03-14T01:02:38;11.60;99.90
25200;DHT22;33094;48.782;9.162;2023-03-14T01:05:04;11.50;99.90
25200;DHT22;33094;48.782;9.162;2023-03-14T01:07:30;11.50;99.90
25200;DHT22;33094;48.782;9.162;2023-03-14T01:09:56;11.60;99.90
25200;DHT22;33094;48.782;9.162;2023-03-14T01:12:22;11.60;99.90
25200;DHT22;33094;48.782;9.162;2023-03-14T01:14:47;11.60;99.90
25200;DHT22;33094;48.782;9.162;2023-03-14T01:17:13;11.70;99.90
25200;DHT22;33094;48.782;9.162;2023-03-14T01:19:39;11.60;99.90
25200;DHT22;33094;48.782;9.162;2023-03-14T01:22:05;11.70;99.90
25200;DHT22;33094;48.782;9.162;2023-03-14T01:24:30;11.60;99.90
25200;DHT22;33094;48.782;9.162;2023-03-14T01:26:56;11.60;99.90
25200;DHT22;33094;48.782;9.162;2023-03-14T01:29:21;11.60;99.90
25200;DHT22;33094;48.782;9.162;2023-03-14T01:31:47;11.60;99.90
25200;DHT22;33094;48.782;9.162;2023-03-14T01:34:14;11.50;99.90
25200;DHT22;33094;48.782;9.162;2023-03-14T01:36:40;11.60;99.90
25200;DHT22;33094;48.782;9.162;2023-03-14T01:39:05;11.60;99.90
25200;DHT22;33094;48.782;9.162;2023-03-14T01:41:31;11.50;99.90
25200;DHT22;33094;48.782;9.162;2023-03-14T01:43:57;11.60;99.90
25200;DHT22;33094;48.782;9.162;2023-03-14T01:46:39;11.50;99.90
25200;DHT22;33094;48.782;9.162;2023-03-14T01:49:28;11.50;99.90
25200;DHT22;33094;48.782;9.162;2023-03-14T01:57:40;11.50;99.90
25200;DHT22;33094;48.782;9.162;2023-03-14T02:00:08;11.50;99.90
25200;DHT22;33094;48.782;9.162;2023-03-14T02:02:43;11.50;99.90
25200;DHT22;33094;48.782;9.162;2023-03-14T02:05:10;11.40;99.90
25200;DHT22;33094;48.782;9.162;2023-03-14T02:07:50;11.40;99.90
25200;DHT22;33094;48.782;9.162;2023-03-14T02:10:26;11.50;99.90
25200;DHT22;33094;48.782;9.162;2023-03-14T02:12:55;11.50;99.90
25200;DHT22;33094;48.782;9.162;2023-03-14T02:17:59;11.40;99.90
25200;DHT22;33094;48.782;9.162;2023-03-14T02:20:46;11.40;99.90
25200;DHT22;33094;48.782;9.162;2023-03-14T02:23:18;11.40;99.90
25200;DHT22;33094;48.782;9.162;2023-03-14T02:25:58;11.40;99.90
25200;DHT22;33094;48.782;9.162;2023-03-14T02:28:27;11.50;99.90
25200;DHT22;33094;48.782;9.162;2023-03-14T02:30:53;11.40;99.90
25200;DHT22;33094;48.782;9.162;2023-03-14T02:33:20;11.40;99.90
25200;DHT22;33094;48.782;9.162;2023-03-14T02:36:15;11.40;99.90
25200;DHT22;33094;48.782;9.162;2023-03-14T02:41:11;11.30;99.90
25200;DHT22;33094;48.782;9.162;2023-03-14T02:43:37;11.30;99.90
25200;DHT22;33094;48.782;9.162;2023-03-14T02:46:04;11.30;99.90
25200;DHT22;33094;48.782;9.162;2023-03-14T02:48:36;11.20;99.90
25200;DHT22;33094;48.782;9.162;2023-03-14T02:51:04;11.20;99.90
25200;DHT22;33094;48.782;9.162;2023-03-14T02:53:35;11.20;99.90
25200;DHT22;33094;48.782;9.162;2023-03-14T02:56:08;11.20;99.90
25200;DHT22;33094;48.782;9.162;2023-03-14T02:58:38;11.10;99.90
25200;DHT22;33094;48.782;9.162;2023-03-14T03:01:07;11.20;99.90
25200;DHT22;33094;48.782;9.162;2023-03-14T03:03:34;11.20;99.90
25200;DHT22;33094;48.782;9.162;2023-03-14T03:08:36;11.00;99.90
25200;DHT22;33094;48.782;9.162;2023-03-14T03:11:03;11.00;99.90
25200;DHT22;33094;48.782;9.162;2023-03-14T03:13:32;11.00;99.90
25200;DHT22;33094;48.782;9.162;2023-03-14T03:15:57;11.00;99.90
25200;DHT22;33094;48.782;9.162;2023-03-14T03:18:23;11.00;99.90
25200;DHT22;33094;48.782;9.162;2023-03-14T03:20:50;11.00;99.90
25200;DHT22;33094;48.782;9.162;2023-03-14T03:23:20;11.00;99.90
25200;DHT22;33094;48.782;9.162;2023-03-14T03:25:58;10.90;99.90
25200;DHT22;33094;48.782;9.162;2023-03-14T03:28:23;11.00;99.90
25200;DHT22;33094;48.782;9.162;2023-03-14T03:30:49;11.00;99.90
25200;DHT22;33094;48.782;9.162;2023-03-14T03:33:15;10.90;99.90
25200;DHT22;33094;48.782;9.162;2023-03-14T03:35:46;10.90;99.90
25200;DHT22;33094;48.782;9.162;2023-03-14T03:38:12;11.00;99.90
25200;DHT22;33094;48.782;9.162;2023-03-14T03:40:38;10.90;99.90
25200;DHT22;33094;48.782;9.162;2023-03-14T03:43:04;10.80;99.90
25200;DHT22;33094;48.782;9.162;2023-03-14T03:45:30;10.80;99.90
25200;DHT22;33094;48.782;9.162;2023-03-14T03:47:56;10.70;99.90
25200;DHT22;33094;48.782;9.162;2023-03-14T03:50:22;10.60;99.90
25200;DHT22;33094;48.782;9.162;2023-03-14T03:52:47;10.70;99.90
25200;DHT22;33094;48.782;9.162;2023-03-14T03:55:13;10.80;99.90
25200;DHT22;33094;48.782;9.162;2023-03-14T03:57:40;10.80;99.90
25200;DHT22;33094;48.782;9.162;2023-03-14T04:02:37;10.40;99.90
25200;DHT22;33094;48.782;9.162;2023-03-14T04:05:06;10.60;99.90
25200;DHT22;33094;48.782;9.162;2023-03-14T04:07:57;10.50;99.90
25200;DHT22;33094;48.782;9.162;2023-03-14T04:10:24;10.20;99.90
25200;DHT22;33094;48.782;9.162;2023-03-14T04:15:28;10.30;99.90
25200;DHT22;33094;48.782;9.162;2023-03-14T04:17:58;10.10;99.90
25200;DHT22;33094;48.782;9.162;2023-03-14T04:20:24;10.10;99.90
25200;DHT22;33094;48.782;9.162;2023-03-14T04:22:50;9.90;99.90
25200;DHT22;33094;48.782;9.162;2023-03-14T04:25:19;9.80;99.90
25200;DHT22;33094;48.782;9.162;2023-03-14T04:30:17;10.00;99.90
25200;DHT22;33094;48.782;9.162;2023-03-14T04:35:19;10.30;99.90
25200;DHT22;33094;48.782;9.162;2023-03-14T04:37:44;10.20;99.90
25200;DHT22;33094;48.782;9.162;2023-03-14T04:40:14;10.30;99.90
25200;DHT22;33094;48.782;9.162;2023-03-14T04:42:40;10.30;99.90
25200;DHT22;33094;48.782;9.162;2023-03-14T04:47:47;10.30;99.90
25200;DHT22;33094;48.782;9.162;2023-03-14T04:50:14;10.20;99.90
25200;DHT22;33094;48.782;9.162;2023-03-14T04:52:40;10.20;99.90
25200;DHT22;33094;48.782;9.162;2023-03-14T04:55:06;10.20;99.90
25200;DHT22;33094;48.782;9.162;2023-03-14T04:57:32;10.10;99.90
25200;DHT22;33094;48.782;9.162;2023-03-14T04:59:57;10.00;99.90
25200;DHT22;33094;48.782;9.162;2023-03-14T05:02:24;10.10;99.90
25200;DHT22;33094;48.782;9.162;2023-03-14T05:04:49;10.00;99.90
25200;DHT22;33094;48.782;9.162;2023-03-14T05:07:15;10.10;99.90
25200;DHT22;33094;48.782;9.162;2023-03-14T05:09:48;10.00;99.90
25200;DHT22;33094;48.782;9.162;2023-03-14T05:12:20;9.90;99.90
25200;DHT22;33094;48.782;9.162;2023-03-14T05:14:46;9.90;99.90
25200;DHT22;33094;48.782;9.162;2023-03-14T05:17:12;9.90;99.90
25200;DHT22;33094;48.782;9.162;2023-03-14T05:19:40;9.90;99.90
25200;DHT22;33094;48.782;9.162;2023-03-14T05:22:06;9.90;99.90
25200;DHT22;33094;48.782;9.162;2023-03-14T05:24:32;9.90;99.90
25200;DHT22;33094;48.782;9.162;2023-03-14T05:29:37;9.90;99.90
25200;DHT22;33094;48.782;9.162;2023-03-14T05:32:03;9.90;99.90
25200;DHT22;33094;48.782;9.162;2023-03-14T05:37:05;9.90;99.90
25200;DHT22;33094;48.782;9.162;2023-03-14T05:39:36;10.00;99.90
25200;DHT22;33094;48.782;9.162;2023-03-14T05:44:40;10.00;99.90
25200;DHT22;33094;48.782;9.162;2023-03-14T05:47:06;9.90;99.90
25200;DHT22;33094;48.782;9.162;2023-03-14T05:49:32;9.90;99.90
25200;DHT22;33094;48.782;9.162;2023-03-14T05:51:57;9.90;99.90
25200;DHT22;33094;48.782;9.162;2023-03-14T05:54:23;9.80;99.90
25200;DHT22;33094;48.782;9.162;2023-03-14T05:56:49;9.80;99.90
25200;DHT22;33094;48.782;9.162;2023-03-14T05:59:14;9.90;99.90
25200;DHT22;33094;48.782;9.162;2023-03-14T06:01:46;10.00;99.90
25200;DHT22;33094;48.782;9.162;2023-03-14T06:04:25;10.10;99.90
25200;DHT22;33094;48.782;9.162;2023-03-14T06:06:51;10.00;99.90
25200;DHT22;33094;48.782;9.162;2023-03-14T06:11:59;9.90;99.90
25200;DHT22;33094;48.782;9.162;2023-03-14T06:14:25;10.10;99.90
25200;DHT22;33094;48.782;9.162;2023-03-14T06:16:51;10.00;99.90
25200;DHT22;33094;48.782;9.162;2023-03-14T06:19:17;9.90;99.90
25200;DHT22;33094;48.782;9.162;2023-03-14T06:21:43;9.80;99.90
25200;DHT22;33094;48.782;9.162;2023-03-14T06:24:09;9.90;99.90
25200;DHT22;33094;48.782;9.162;2023-03-14T06:26:35;9.80;99.90
25200;DHT22;33094;48.782;9.162;2023-03-14T06:29:00;9.90;99.90
25200;DHT22;33094;48.782;9.162;2023-03-14T06:31:32;10.10;99.90
25200;DHT22;33094;48.782;9.162;2023-03-14T06:33:58;10.10;99.90
25200;DHT22;33094;48.782;9.162;2023-03-14T06:36:24;10.10;99.90
25200;DHT22;33094;48.782;9.162;2023-03-14T06:38:50;10.10;99.90
25200;DHT22;33094;48.782;9.162;2023-03-14T06:41:15;10.20;99.90
25200;DHT22;33094;48.782;9.162;2023-03-14T06:43:42;10.10;99.90
25200;DHT22;33094;48.782;9.162;2023-03-14T06:46:09;10.20;99.90
25200;DHT22;33094;48.782;9.162;2023-03-14T06:48:34;10.10;99.90
25200;DHT22;33094;48.782;9.162;2023-03-14T06:51:03;10.10;99.90
25200;DHT22;33094;48.782;9.162;2023-03-14T06:56:06;10.20;99.90
25200;DHT22;33094;48.782;9.162;2023-03-14T06:58:32;10.10;99.90
25200;DHT22;33094;48.782;9.162;2023-03-14T07:00:57;10.20;99.90
25200;DHT22;33094;48.782;9.162;2023-03-14T07:03:24;10.20;99.90
25200;DHT22;33094;48.782;9.162;2023-03-14T07:05:50;10.50;99.90
25200;DHT22;33094;48.782;9.162;2023-03-14T07:08:16;10.70;99.90
25200;DHT22;33094;48.782;9.162;2023-03-14T07:10:42;10.70;99.90
25200;DHT22;33094;48.782;9.162;2023-03-14T07:13:08;10.70;99.90
25200;DHT22;33094;48.782;9.162;2023-03-14T07:15:34;10.70;99.90
25200;DHT22;33094;48.782;9.162;2023-03-14T07:18:00;10.90;99.90
25200;DHT22;33094;48.782;9.162;2023-03-14T07:20:26;10.80;99.90
25200;DHT22;33094;48.782;9.162;2023-03-14T07:22:51;10.80;99.90
25200;DHT22;33094;48.782;9.162;2023-03-14T07:25:17;10.90;99.90
25200;DHT22;33094;48.782;9.162;2023-03-14T07:27:44;11.00;99.90
25200;DHT22;33094;48.782;9.162;2023-03-14T07:30:10;11.00;99.90
25200;DHT22;33094;48.782;9.162;2023-03-14T07:35:11;11.10;99.90
25200;DHT22;33094;48.782;9.162;2023-03-14T07:37:37;11.10;99.90
25200;DHT22;33094;48.782;9.162;2023-03-14T07:40:03;11.20;99.90
25200;DHT22;33094;48.782;9.162;2023-03-14T07:42:32;11.10;99.90
25200;DHT22;33094;48.782;9.162;2023-03-14T07:45:00;11.20;99.90
25200;DHT22;33094;48.782;9.162;2023-03-14T07:47:29;11.40;99.90
25200;DHT22;33094;48.782;9.162;2023-03-14T07:50:16;11.40;99.90
25200;DHT22;33094;48.782;9.162;2023-03-14T07:52:46;11.60;99.90
25200;DHT22;33094;48.782;9.162;2023-03-14T07:55:27;11.60;99.90
25200;DHT22;33094;48.782;9.162;2023-03-14T07:57:57;11.60;99.90
25200;DHT22;33094;48.782;9.162;2023-03-14T08:00:30;11.60;99.90
25200;DHT22;33094;48.782;9.162;2023-03-14T08:08:19;11.80;99.90
25200;DHT22;33094;48.782;9.162;2023-03-14T08:13:20;11.90;99.90
25200;DHT22;33094;48.782;9.162;2023-03-14T08:15:48;12.00;99.90
25200;DHT22;33094;48.782;9.162;2023-03-14T08:20:50;12.00;99.90
25200;DHT22;33094;48.782;9.162;2023-03-14T08:25:52;12.20;99.90
25200;DHT22;33094;48.782;9.162;2023-03-14T08:30:55;12.40;99.90
25200;DHT22;33094;48.782;9.162;2023-03-14T08:33:21;12.60;99.90
25200;DHT22;33094;48.782;9.162;2023-03-14T08:35:54;12.80;99.90
25200;DHT22;33094;48.782;9.162;2023-03-14T09:14:45;13.30;99.90
25200;DHT22;33094;48.782;9.162;2023-03-14T09:43:19;12.60;99.90
25200;DHT22;33094;48.782;9.162;2023-03-14T10:14:35;14.00;99.90
25200;DHT22;33094;48.782;9.162;2023-03-14T12:13:39;11.50;99.90
25200;DHT22;33094;48.782;9.162;2023-03-14T12:37:14;12.30;99.90
25200;DHT22;33094;48.782;9.162;2023-03-14T13:51:03;11.00;99.90
25200;DHT22;33094;48.782;9.162;2023-03-14T14:24:43;9.70;96.60
25200;DHT22;33094;48.782;9.162;2023-03-14T14:40:22;9.90;96.60
25200;DHT22;33094;48.782;9.162;2023-03-14T14:48:24;9.90;96.80
25200;DHT22;33094;48.782;9.162;2023-03-14T14:56:13;9.60;96.70
25200;DHT22;33094;48.782;9.162;2023-03-14T15:16:41;9.90;97.20
25200;DHT22;33094;48.782;9.162;2023-03-14T15:35:04;9.70;96.60
25200;DHT22;33094;48.782;9.162;2023-03-14T15:42:42;9.60;96.80
25200;DHT22;33094;48.782;9.162;2023-03-14T16:13:56;9.80;97.40
25200;DHT22;33094;48.782;9.162;2023-03-14T16:17:08;9.50;97.50
25200;DHT22;33094;48.782;9.162;2023-03-14T16:19:36;9.60;97.60
25200;DHT22;33094;48.782;9.162;2023-03-14T16:29:43;9.30;98.10
25200;DHT22;33094;48.782;9.162;2023-03-14T16:32:11;9.20;98.30
25200;DHT22;33094;48.782;9.162;2023-03-14T16:37:17;9.20;98.50
25200;DHT22;33094;48.782;9.162;2023-03-14T16:39:47;9.20;98.40
25200;DHT22;33094;48.782;9.162;2023-03-14T16:44:42;9.20;98.80
25200;DHT22;33094;48.782;9.162;2023-03-14T16:52:21;9.20;98.80
25200;DHT22;33094;48.782;9.162;2023-03-14T16:54:52;9.20;98.70
25200;DHT22;33094;48.782;9.162;2023-03-14T16:57:37;9.20;98.90
25200;DHT22;33094;48.782;9.162;2023-03-14T17:05:10;9.20;98.90
25200;DHT22;33094;48.782;9.162;2023-03-14T17:07:48;9.20;98.90
25200;DHT22;33094;48.782;9.162;2023-03-14T17:18:14;9.30;98.90
25200;DHT22;33094;48.782;9.162;2023-03-14T17:31:13;8.70;99.90
25200;DHT22;33094;48.782;9.162;2023-03-14T17:33:48;8.50;99.90
25200;DHT22;33094;48.782;9.162;2023-03-14T17:38:55;7.60;99.90
25200;DHT22;33094;48.782;9.162;2023-03-14T17:41:22;7.60;99.90
25200;DHT22;33094;48.782;9.162;2023-03-14T17:43:48;7.70;99.90
25200;DHT22;33094;48.782;9.162;2023-03-14T17:48:48;7.40;99.90
25200;DHT22;33094;48.782;9.162;2023-03-14T17:53:48;7.40;99.90
25200;DHT22;33094;48.782;9.162;2023-03-14T17:56:14;7.40;99.90
25200;DHT22;33094;48.782;9.162;2023-03-14T17:58:43;7.40;99.90
25200;DHT22;33094;48.782;9.162;2023-03-14T18:01:15;7.40;99.90
25200;DHT22;33094;48.782;9.162;2023-03-14T18:03:41;7.50;99.90
25200;DHT22;33094;48.782;9.162;2023-03-14T18:06:11;7.50;99.90
25200;DHT22;33094;48.782;9.162;2023-03-14T18:08:40;7.60;99.90
25200;DHT22;33094;48.782;9.162;2023-03-14T18:16:20;7.30;99.90
25200;DHT22;33094;48.782;9.162;2023-03-14T18:21:22;5.90;99.90
25200;DHT22;33094;48.782;9.162;2023-03-14T18:23:47;5.70;99.90
25200;DHT22;33094;48.782;9.162;2023-03-14T18:26:13;5.60;99.90
25200;DHT22;33094;48.782;9.162;2023-03-14T18:28:42;5.80;99.90
25200;DHT22;33094;48.782;9.162;2023-03-14T18:31:10;5.80;99.90
25200;DHT22;33094;48.782;9.162;2023-03-14T18:33:36;5.90;99.90
25200;DHT22;33094;48.782;9.162;2023-03-14T18:36:10;5.80;99.90
25200;DHT22;33094;48.782;9.162;2023-03-14T18:38:36;5.80;99.90
25200;DHT22;33094;48.782;9.162;2023-03-14T18:41:08;6.10;99.90
25200;DHT22;33094;48.782;9.162;2023-03-14T18:43:34;5.90;99.90
25200;DHT22;33094;48.782;9.162;2023-03-14T18:46:01;5.90;99.90
25200;DHT22;33094;48.782;9.162;2023-03-14T18:48:28;6.00;99.90
25200;DHT22;33094;48.782;9.162;2023-03-14T18:50:54;6.00;99.90
25200;DHT22;33094;48.782;9.162;2023-03-14T18:53:19;6.00;99.90
25200;DHT22;33094;48.782;9.162;2023-03-14T18:55:46;6.10;99.90
25200;DHT22;33094;48.782;9.162;2023-03-14T18:58:17;6.20;99.90
25200;DHT22;33094;48.782;9.162;2023-03-14T19:00:49;6.10;99.90
25200;DHT22;33094;48.782;9.162;2023-03-14T19:03:23;6.20;99.90
25200;DHT22;33094;48.782;9.162;2023-03-14T19:05:52;6.20;99.90
25200;DHT22;33094;48.782;9.162;2023-03-14T19:08:19;6.30;99.90
25200;DHT22;33094;48.782;9.162;2023-03-14T19:13:17;6.40;99.90
25200;DHT22;33094;48.782;9.162;2023-03-14T19:15:43;6.40;99.90
25200;DHT22;33094;48.782;9.162;2023-03-14T19:18:09;6.40;99.90
25200;DHT22;33094;48.782;9.162;2023-03-14T19:20:39;6.40;99.90
25200;DHT22;33094;48.782;9.162;2023-03-14T19:23:06;6.40;99.90
25200;DHT22;33094;48.782;9.162;2023-03-14T19:25:32;6.40;99.90
25200;DHT22;33094;48.782;9.162;2023-03-14T19:27:58;6.50;99.90
25200;DHT22;33094;48.782;9.162;2023-03-14T19:35:28;6.60;99.90
25200;DHT22;33094;48.782;9.162;2023-03-14T19:38:00;6.60;99.90
25200;DHT22;33094;48.782;9.162;2023-03-14T19:40:25;6.50;99.90
25200;DHT22;33094;48.782;9.162;2023-03-14T19:42:51;6.40;99.90
25200;DHT22;33094;48.782;9.162;2023-03-14T19:45:17;6.30;99.90
25200;DHT22;33094;48.782;9.162;2023-03-14T19:47:43;6.50;99.90
25200;DHT22;33094;48.782;9.162;2023-03-14T19:50:09;6.70;99.90
25200;DHT22;33094;48.782;9.162;2023-03-14T19:52:35;6.60;99.90
25200;DHT22;33094;48.782;9.162;2023-03-14T19:55:03;6.50;99.90
25200;DHT22;33094;48.782;9.162;2023-03-14T19:57:29;6.60;99.90
25200;DHT22;33094;48.782;9.162;2023-03-14T19:59:55;6.50;99.90
25200;DHT22;33094;48.782;9.162;2023-03-14T20:02:22;6.50;99.90
25200;DHT22;33094;48.782;9.162;2023-03-14T20:04:48;6.60;99.90
25200;DHT22;33094;48.782;9.162;2023-03-14T20:07:14;6.50;99.90
25200;DHT22;33094;48.782;9.162;2023-03-14T20:09:41;6.60;99.90
25200;DHT22;33094;48.782;9.162;2023-03-14T20:12:10;6.70;99.90
25200;DHT22;33094;48.782;9.162;2023-03-14T20:25:00;6.70;99.90
25200;DHT22;33094;48.782;9.162;2023-03-14T20:30:24;6.70;99.90
25200;DHT22;33094;48.782;9.162;2023-03-14T20:32:52;6.70;99.90
25200;DHT22;33094;48.782;9.162;2023-03-14T20:37:51;6.70;99.90
25200;DHT22;33094;48.782;9.162;2023-03-14T20:42:56;6.70;99.90
25200;DHT22;33094;48.782;9.162;2023-03-14T20:45:23;6.70;99.90
25200;DHT22;33094;48.782;9.162;2023-03-14T20:53:19;6.70;99.90
25200;DHT22;33094;48.782;9.162;2023-03-14T21:03:34;6.80;99.90
25200;DHT22;33094;48.782;9.162;2023-03-14T21:06:01;6.80;99.90
